createdAt,value
2022-11-14T00:04:47.966Z,101156.16
2022-11-14T00:09:49.417Z,101162.69
2022-11-14T00:14:51.779Z,101159.31
2022-11-14T00:19:53.199Z,101161.75
2022-11-14T00:24:54.605Z,101160.41
2022-11-14T00:29:56.083Z,101156.47
2022-11-14T00:34:57.539Z,101151.81
2022-11-14T00:39:58.997Z,101166.44
2022-11-14T00:45:00.405Z,101152.94
2022-11-14T00:50:01.914Z,101140.66
2022-11-14T00:55:03.847Z,101155.38
2022-11-14T01:00:06.840Z,101153.31
2022-11-14T01:05:08.409Z,101134.81
2022-11-14T01:10:10.083Z,101132.31
2022-11-14T01:15:11.560Z,101124.38
2022-11-14T01:20:12.958Z,101117.91
2022-11-14T01:25:14.464Z,101115.03
2022-11-14T01:30:15.946Z,101107.94
2022-11-14T01:35:17.489Z,101113.41
2022-11-14T01:40:19.240Z,101113.66
2022-11-14T01:45:45.857Z,101114.03
2022-11-14T01:50:53.761Z,101088.59
2022-11-14T01:55:59.309Z,101083.53
2022-11-14T02:01:01.011Z,101070.72
2022-11-14T02:06:03.302Z,101070.97
2022-11-14T02:11:04.884Z,101073.03
2022-11-14T02:16:06.837Z,101058.41
2022-11-14T02:21:08.327Z,101057.34
2022-11-14T02:26:09.784Z,101052.69
2022-11-14T02:31:11.468Z,101052.16
2022-11-14T02:36:12.898Z,101050.19
2022-11-14T02:41:14.365Z,101042.91
2022-11-14T02:46:15.789Z,101036.13
2022-11-14T02:51:18.635Z,101030.53
2022-11-14T02:56:20.359Z,101026.16
2022-11-14T03:01:22.031Z,101039.13
2022-11-14T03:06:23.553Z,101039.25
2022-11-14T03:11:24.970Z,101038.50
2022-11-14T03:16:26.425Z,101044.09
2022-11-14T03:21:27.970Z,101044.66
2022-11-14T03:26:29.399Z,101048.63
2022-11-14T03:31:31.281Z,101046.50
2022-11-14T03:36:34.197Z,101036.47
2022-11-14T03:41:35.632Z,101037.16
2022-11-14T03:46:37.136Z,101026.72
2022-11-14T03:51:38.656Z,101024.13
2022-11-14T03:56:40.093Z,101030.69
2022-11-14T04:01:41.553Z,101027.22
2022-11-14T04:06:43.040Z,101022.34
2022-11-14T04:11:44.521Z,101036.41
2022-11-14T04:16:45.935Z,101020.47
2022-11-14T04:21:47.440Z,101034.31
2022-11-14T04:26:48.862Z,101029.44
2022-11-14T04:31:50.403Z,101029.91
2022-11-14T04:36:58.940Z,101021.53
2022-11-14T04:42:00.415Z,101019.66
2022-11-14T04:47:02.007Z,101015.66
2022-11-14T04:52:03.908Z,101002.78
2022-11-14T04:57:05.351Z,100998.25
2022-11-14T05:02:06.803Z,100994.06
2022-11-14T05:07:08.231Z,100994.28
2022-11-14T05:12:09.631Z,101000.91
2022-11-14T05:17:11.098Z,100984.16
2022-11-14T05:22:12.552Z,100981.09
2022-11-14T05:27:14.100Z,100967.16
2022-11-14T05:32:16.671Z,100972.78
2022-11-14T05:37:18.119Z,100980.53
2022-11-14T05:42:19.536Z,100984.03
2022-11-14T05:47:20.963Z,100970.72
2022-11-14T05:52:22.386Z,100980.41
2022-11-14T05:57:23.824Z,100989.25
2022-11-14T06:02:25.309Z,101004.66
2022-11-14T06:07:26.868Z,101005.66
2022-11-14T06:12:28.350Z,101011.53
2022-11-14T06:17:29.753Z,101015.09
2022-11-14T06:22:31.392Z,101014.16
2022-11-14T06:27:32.792Z,100999.25
2022-11-14T06:32:34.291Z,101003.47
2022-11-14T06:37:37.343Z,101001.47
2022-11-14T06:42:38.760Z,101009.50
2022-11-14T06:47:40.153Z,101009.00
2022-11-14T06:52:41.658Z,100998.25
2022-11-14T06:57:43.477Z,100999.72
2022-11-14T07:02:49.164Z,100998.09
2022-11-14T07:07:50.599Z,100989.41
2022-11-14T07:12:52.030Z,100983.81
2022-11-14T07:17:53.459Z,100981.66
2022-11-14T07:22:54.901Z,100976.66
2022-11-14T07:27:57.609Z,100960.53
2022-11-14T07:32:59.379Z,100965.78
2022-11-14T07:38:02.433Z,100965.22
2022-11-14T07:43:04.277Z,100952.47
2022-11-14T07:48:05.962Z,100953.56
2022-11-14T07:53:07.657Z,100954.56
2022-11-14T07:58:09.298Z,100957.34
2022-11-14T08:03:11.003Z,100958.06
2022-11-14T08:08:12.445Z,100961.97
2022-11-14T08:18:35.340Z,100942.19
2022-11-14T08:23:36.815Z,100931.41
2022-11-14T08:28:38.285Z,100924.41
2022-11-14T08:33:39.741Z,100925.34
2022-11-14T08:38:41.197Z,100924.69
2022-11-14T08:43:42.640Z,100925.00
2022-11-14T08:48:44.214Z,100913.69
2022-11-14T08:53:45.623Z,100908.59
2022-11-14T08:58:47.101Z,100912.16
2022-11-14T09:03:48.682Z,100909.72
2022-11-14T09:08:50.142Z,100913.22
2022-11-14T09:13:51.574Z,100914.53
2022-11-14T09:18:53.026Z,100904.25
2022-11-14T09:24:00.374Z,100901.88
2022-11-14T09:29:03.112Z,100890.59
2022-11-14T09:34:04.517Z,100870.91
2022-11-14T09:39:05.927Z,100873.03
2022-11-14T09:44:32.818Z,100877.78
2022-11-14T09:49:45.367Z,100875.88
2022-11-14T09:54:53.578Z,100887.06
2022-11-14T09:59:56.147Z,100882.72
2022-11-14T10:05:30.119Z,100873.09
2022-11-14T10:10:49.493Z,100873.53
2022-11-14T10:15:53.636Z,100863.75
2022-11-14T10:21:02.223Z,100857.94
2022-11-14T10:26:20.257Z,100843.31
2022-11-14T10:31:58.811Z,100840.28
2022-11-14T10:37:22.755Z,100842.72
2022-11-14T10:42:37.806Z,100840.63
2022-11-14T10:47:43.441Z,100833.97
2022-11-14T10:52:46.233Z,100823.84
2022-11-14T10:57:48.305Z,100812.56
2022-11-14T11:02:55.295Z,100809.38
2022-11-14T11:08:42.219Z,100812.56
2022-11-14T11:13:53.381Z,100801.25
2022-11-14T11:19:13.803Z,100793.38
2022-11-14T11:24:32.067Z,100795.03
2022-11-14T11:29:33.541Z,100786.81
2022-11-14T11:34:35.087Z,100782.16
2022-11-14T11:39:43.401Z,100768.56
2022-11-14T11:44:50.963Z,100752.88
2022-11-14T11:49:54.708Z,100749.28
2022-11-14T11:55:17.247Z,100737.97
2022-11-14T12:00:21.994Z,100742.22
2022-11-14T12:05:57.322Z,100740.09
2022-11-14T12:10:59.902Z,100741.63
2022-11-14T12:16:13.561Z,100726.38
2022-11-14T12:21:35.308Z,100722.44
2022-11-14T12:27:00.546Z,100710.47
2022-11-14T12:32:08.720Z,100718.16
2022-11-14T12:37:18.176Z,100711.91
2022-11-14T12:42:22.640Z,100713.97
2022-11-14T12:47:28.730Z,100704.97
2022-11-14T12:52:54.739Z,100702.75
2022-11-14T12:58:28.729Z,100707.38
2022-11-14T13:03:48.888Z,100684.72
2022-11-14T13:09:28.584Z,100672.41
2022-11-14T13:14:50.038Z,100677.59
2022-11-14T13:20:09.989Z,100664.41
2022-11-14T13:25:11.381Z,100662.38
2022-11-14T13:30:12.860Z,100665.16
2022-11-14T13:35:48.714Z,100655.13
2022-11-14T13:41:24.317Z,100644.78
2022-11-14T13:46:49.727Z,100646.28
2022-11-14T13:51:53.628Z,100640.00
2022-11-14T13:57:04.947Z,100640.88
2022-11-14T14:02:42.654Z,100632.66
2022-11-14T14:08:03.822Z,100622.31
2022-11-14T14:13:16.491Z,100628.13
2022-11-14T14:18:17.896Z,100620.03
2022-11-14T14:23:34.819Z,100613.25
2022-11-14T14:28:39.054Z,100610.78
2022-11-14T14:33:43.182Z,100596.63
2022-11-14T14:38:45.336Z,100601.59
2022-11-14T14:43:53.657Z,100597.47
2022-11-14T14:48:55.750Z,100602.31
2022-11-14T14:53:58.685Z,100601.13
2022-11-14T14:59:16.255Z,100600.25
2022-11-14T15:04:20.587Z,100598.50
2022-11-14T15:09:25.370Z,100593.72
2022-11-14T15:14:30.664Z,100591.38
2022-11-14T15:19:44.242Z,100580.16
2022-11-14T15:25:06.845Z,100572.38
2022-11-14T15:30:24.468Z,100583.25
2022-11-14T15:35:29.491Z,100573.38
2022-11-14T15:40:36.797Z,100572.72
2022-11-14T15:45:40.944Z,100572.38
2022-11-14T15:50:42.899Z,100562.19
2022-11-14T15:55:44.489Z,100553.38
2022-11-14T16:00:52.500Z,100544.97
2022-11-14T16:05:53.926Z,100553.56
2022-11-14T16:10:55.332Z,100548.03
2022-11-14T16:15:56.740Z,100541.13
2022-11-14T16:20:59.389Z,100544.97
2022-11-14T16:26:00.842Z,100544.44
2022-11-14T16:31:02.513Z,100544.81
2022-11-14T16:36:04.354Z,100545.97
2022-11-14T16:41:09.695Z,100539.63
2022-11-14T16:46:11.502Z,100536.63
2022-11-14T16:51:40.888Z,100535.06
2022-11-14T16:56:34.771Z,100531.59
2022-11-14T17:01:36.768Z,100526.81
2022-11-14T17:06:38.347Z,100537.56
2022-11-14T17:11:39.762Z,100527.59
2022-11-14T17:16:41.397Z,100533.75
2022-11-14T17:21:43.799Z,100539.50
2022-11-14T17:26:45.247Z,100532.78
2022-11-14T17:31:47.307Z,100529.53
2022-11-14T17:36:48.832Z,100538.06
2022-11-14T17:41:50.302Z,100529.34
2022-11-14T17:46:53.792Z,100517.94
2022-11-14T17:51:55.296Z,100526.31
2022-11-14T17:56:58.500Z,100519.91
2022-11-14T18:02:00.347Z,100532.19
2022-11-14T18:07:01.924Z,100528.91
2022-11-14T18:12:03.555Z,100531.41
2022-11-14T18:17:12.740Z,100525.66
2022-11-14T18:22:14.705Z,100526.59
2022-11-14T18:27:16.192Z,100527.75
2022-11-14T18:32:18.094Z,100515.66
2022-11-14T18:37:19.508Z,100512.38
2022-11-14T18:42:20.910Z,100502.19
2022-11-14T18:47:22.363Z,100516.13
2022-11-14T18:52:23.753Z,100504.66
2022-11-14T18:57:25.214Z,100493.06
2022-11-14T19:02:26.676Z,100486.59
2022-11-14T19:07:29.485Z,100497.72
2022-11-14T19:12:31.031Z,100487.16
2022-11-14T19:17:32.495Z,100486.41
2022-11-14T19:22:33.917Z,100493.50
2022-11-14T19:27:35.336Z,100482.19
2022-11-14T19:32:36.814Z,100477.28
2022-11-14T19:37:38.223Z,100486.16
2022-11-14T19:42:39.758Z,100474.91
2022-11-14T19:47:41.220Z,100462.91
2022-11-14T19:52:43.162Z,100462.66
2022-11-14T19:57:44.791Z,100453.66
2022-11-14T20:02:46.926Z,100462.31
2022-11-14T20:07:48.385Z,100461.69
2022-11-14T20:12:49.858Z,100456.16
2022-11-14T20:17:51.290Z,100439.72
2022-11-14T20:22:52.719Z,100435.53
2022-11-14T20:27:54.182Z,100439.44
2022-11-14T20:32:55.677Z,100448.34
2022-11-14T20:38:00.548Z,100435.78
2022-11-14T20:43:07.211Z,100433.78
2022-11-14T20:48:08.609Z,100438.03
2022-11-14T20:53:10.008Z,100433.88
2022-11-14T20:58:11.438Z,100429.28
2022-11-14T21:03:12.830Z,100434.66
2022-11-14T21:08:14.515Z,100427.34
2022-11-14T21:13:40.230Z,100440.34
2022-11-14T21:18:47.557Z,100438.75
2022-11-14T21:23:50.560Z,100434.47
2022-11-14T21:28:57.608Z,100437.75
2022-11-14T21:34:06.608Z,100433.97
2022-11-14T21:39:08.082Z,100432.25
2022-11-14T21:44:12.939Z,100433.03
2022-11-14T21:49:14.574Z,100429.38
2022-11-14T21:54:16.143Z,100423.41
2022-11-14T21:59:21.332Z,100424.66
2022-11-14T22:04:23.370Z,100427.09
2022-11-14T22:09:28.013Z,100418.25
2022-11-14T22:14:29.636Z,100426.22
2022-11-14T22:19:31.142Z,100420.84
2022-11-14T22:24:32.922Z,100427.59
2022-11-14T22:29:34.354Z,100414.97
2022-11-14T22:34:35.799Z,100427.78
2022-11-14T22:39:37.196Z,100421.72
2022-11-14T22:44:38.666Z,100407.03
2022-11-14T22:49:40.076Z,100409.59
2022-11-14T22:54:42.214Z,100405.63
2022-11-14T22:59:43.610Z,100399.91
2022-11-14T23:04:45.038Z,100409.69
2022-11-14T23:09:46.514Z,100395.56
2022-11-14T23:14:47.943Z,100388.44
2022-11-14T23:19:49.361Z,100390.84
2022-11-14T23:24:50.872Z,100381.88
2022-11-14T23:29:52.284Z,100387.13
2022-11-14T23:34:53.692Z,100382.69
2022-11-14T23:39:55.109Z,100377.63
2022-11-14T23:44:56.520Z,100361.81
2022-11-14T23:49:58.329Z,100355.19
2022-11-14T23:54:59.865Z,100353.66
